Acadia Natl Park, Maine
Current Conditions -  °F | °C
As of 1:55 PM on Friday 24 Oct 2014 (Local Time) from KBHB Reporting Station
Overcast Overcast  
Wind Chill: 43°   Ceiling: 700
Heat Index: 48°   Visibility: 10mi
Dew Point: 46°   Wind: 13mph
Humidity: 93%   Direction: 360°N
Pressure: 29.6"   Gusts: 20mph
Location:  44.3°N, 68.25°W
Report Text: KBHB 241755Z AUTO 36011G17KT 10SM OVC007 09/08 A2960 RMK AO1 P0004 60006 10100 20090 57010
Loading
Personal Weather Stations






























Interactive Weather Map
Tropical Storm Tracking
New forecast layout! Learn more

10-Day Weather Forecast

Advertisements
Track Severe Weather on mobile